createdAt,value
2023-03-26T00:01:38.144Z,8.60
2023-03-26T00:04:07.238Z,8.60
2023-03-26T00:06:39.165Z,8.60
2023-03-26T00:09:08.456Z,8.60
2023-03-26T00:11:37.103Z,8.60
2023-03-26T00:14:05.402Z,8.50
2023-03-26T00:16:35.825Z,8.50
2023-03-26T00:19:04.047Z,8.50
2023-03-26T00:21:33.011Z,8.50
2023-03-26T00:24:04.286Z,8.40
2023-03-26T00:26:34.014Z,8.40
2023-03-26T00:29:03.860Z,8.40
2023-03-26T00:31:33.065Z,8.30
2023-03-26T00:34:05.840Z,8.40
2023-03-26T00:36:35.996Z,8.30
2023-03-26T00:39:05.550Z,8.30
2023-03-26T00:41:37.475Z,8.30
2023-03-26T00:44:05.831Z,8.20
2023-03-26T00:46:34.196Z,8.20
2023-03-26T00:49:04.093Z,8.20
2023-03-26T00:51:34.162Z,8.20
2023-03-26T00:54:02.319Z,8.20
2023-03-26T00:56:30.915Z,8.10
2023-03-26T00:59:00.173Z,8.00
2023-03-26T01:01:29.260Z,8.10
2023-03-26T01:04:07.562Z,8.10
2023-03-26T01:06:42.105Z,8.10
2023-03-26T01:09:15.818Z,8.20
2023-03-26T01:11:44.689Z,8.20
2023-03-26T01:14:14.352Z,8.10
2023-03-26T01:16:45.270Z,8.00
2023-03-26T01:19:16.504Z,8.10
2023-03-26T01:21:47.452Z,8.10
2023-03-26T01:24:16.903Z,8.10
2023-03-26T01:26:57.527Z,8.10
2023-03-26T01:29:31.599Z,8.10
2023-03-26T01:32:04.336Z,8.00
2023-03-26T01:34:38.186Z,8.00
2023-03-26T01:37:13.512Z,8.00
2023-03-26T01:39:49.625Z,8.00
2023-03-26T01:42:21.271Z,8.00
2023-03-26T01:44:53.597Z,8.00
2023-03-26T01:47:22.436Z,8.80
2023-03-26T01:49:50.493Z,8.00
2023-03-26T01:52:20.377Z,7.90
2023-03-26T01:54:50.453Z,7.90
2023-03-26T01:57:21.375Z,7.80
2023-03-26T01:59:57.148Z,7.70
2023-03-26T02:02:28.907Z,7.70
2023-03-26T02:04:59.999Z,7.70
2023-03-26T02:07:34.477Z,7.60
2023-03-26T02:10:08.201Z,7.50
2023-03-26T02:12:41.000Z,7.60
2023-03-26T02:15:10.286Z,7.60
2023-03-26T02:17:40.475Z,7.60
2023-03-26T02:20:10.742Z,7.60
2023-03-26T02:22:40.918Z,7.60
2023-03-26T02:25:14.294Z,7.60
2023-03-26T02:27:42.741Z,7.70
2023-03-26T02:30:14.387Z,7.60
2023-03-26T02:32:44.675Z,7.60
2023-03-26T02:35:13.650Z,7.60
2023-03-26T02:37:42.087Z,7.70
2023-03-26T02:40:18.251Z,7.70
2023-03-26T02:42:48.072Z,7.60
2023-03-26T02:45:17.026Z,7.70
2023-03-26T02:48:07.967Z,7.70
2023-03-26T02:50:58.547Z,7.60
2023-03-26T02:53:30.474Z,7.60
2023-03-26T02:56:23.981Z,7.60
2023-03-26T02:59:06.256Z,7.60
2023-03-26T03:01:35.370Z,7.70
2023-03-26T03:04:05.249Z,7.70
2023-03-26T03:06:38.607Z,7.70
2023-03-26T03:09:08.487Z,7.50
2023-03-26T03:11:38.445Z,7.50
2023-03-26T03:14:07.010Z,7.50
2023-03-26T03:16:36.336Z,7.50
2023-03-26T03:19:07.768Z,7.50
2023-03-26T03:21:39.047Z,7.60
2023-03-26T03:24:08.550Z,7.50
2023-03-26T03:26:46.121Z,7.50
2023-03-26T03:29:23.691Z,7.50
2023-03-26T03:31:53.121Z,7.50
2023-03-26T03:34:39.122Z,7.60
2023-03-26T03:37:08.523Z,7.70
2023-03-26T03:39:44.682Z,7.70
2023-03-26T03:42:19.387Z,7.70
2023-03-26T03:44:48.865Z,7.70
2023-03-26T03:47:37.430Z,7.70
2023-03-26T03:50:06.512Z,7.70
2023-03-26T03:52:35.788Z,7.70
2023-03-26T03:55:04.883Z,7.70
2023-03-26T03:57:45.933Z,7.70
2023-03-26T04:00:22.183Z,7.70
2023-03-26T04:03:06.577Z,7.70
2023-03-26T04:05:36.444Z,7.70
2023-03-26T04:08:05.319Z,7.70
2023-03-26T04:10:44.686Z,7.70
2023-03-26T04:13:15.270Z,7.60
2023-03-26T04:16:01.701Z,7.70
2023-03-26T04:18:32.618Z,7.80
2023-03-26T04:21:08.275Z,7.90
2023-03-26T04:23:36.609Z,7.90
2023-03-26T04:26:16.155Z,7.70
2023-03-26T04:29:05.907Z,7.70
2023-03-26T04:31:36.419Z,7.70
2023-03-26T04:34:07.933Z,7.70
2023-03-26T04:36:46.290Z,7.70
2023-03-26T04:39:16.542Z,7.70
2023-03-26T04:42:23.080Z,7.70
2023-03-26T04:45:16.303Z,7.90
2023-03-26T04:47:48.660Z,8.00
2023-03-26T04:50:18.333Z,8.10
2023-03-26T04:52:46.672Z,8.30
2023-03-26T04:55:52.473Z,8.40
2023-03-26T04:58:38.202Z,8.50
2023-03-26T05:01:10.284Z,8.50
2023-03-26T05:03:46.048Z,8.60
2023-03-26T05:06:17.761Z,8.60
2023-03-26T05:08:46.494Z,8.70
2023-03-26T05:11:25.948Z,8.70
2023-03-26T05:13:54.439Z,8.70
2023-03-26T05:16:24.070Z,8.70
2023-03-26T05:18:58.216Z,8.70
2023-03-26T05:21:33.136Z,8.70
2023-03-26T05:24:02.340Z,8.80
2023-03-26T05:26:30.676Z,8.80
2023-03-26T05:29:00.559Z,8.80
2023-03-26T05:31:35.599Z,8.90
2023-03-26T05:34:05.118Z,8.90
2023-03-26T05:36:33.360Z,8.90
2023-03-26T05:39:25.655Z,8.90
2023-03-26T05:42:09.353Z,8.90
2023-03-26T05:44:56.210Z,8.90
2023-03-26T05:47:29.965Z,9.00
2023-03-26T05:49:59.296Z,9.00
2023-03-26T05:52:28.283Z,9.10
2023-03-26T05:55:16.359Z,9.10
2023-03-26T05:58:20.871Z,9.10
2023-03-26T06:01:10.693Z,9.10
2023-03-26T06:04:09.226Z,9.10
2023-03-26T06:06:42.885Z,9.20
2023-03-26T06:09:12.084Z,9.20
2023-03-26T06:11:41.026Z,9.20
2023-03-26T06:14:09.640Z,9.20
2023-03-26T06:16:41.749Z,9.20
2023-03-26T06:19:23.049Z,9.30
2023-03-26T06:21:57.483Z,9.20
2023-03-26T06:24:36.882Z,9.20
2023-03-26T06:27:21.400Z,9.10
2023-03-26T06:29:49.551Z,8.70
2023-03-26T06:32:40.648Z,8.30
2023-03-26T06:35:13.779Z,8.10
2023-03-26T06:37:43.194Z,7.90
2023-03-26T06:40:13.628Z,7.90
2023-03-26T06:43:11.292Z,7.80
2023-03-26T06:45:57.318Z,7.80
2023-03-26T06:48:44.345Z,7.80
2023-03-26T06:51:43.574Z,7.90
2023-03-26T06:54:28.694Z,7.90
2023-03-26T06:57:03.330Z,8.00
2023-03-26T07:00:02.118Z,8.20
2023-03-26T07:02:50.573Z,8.30
2023-03-26T07:05:37.589Z,8.40
2023-03-26T07:11:29.806Z,8.60
2023-03-26T07:14:01.088Z,8.80
2023-03-26T07:16:51.210Z,8.70
2023-03-26T07:19:53.293Z,8.80
2023-03-26T07:22:26.285Z,8.80
2023-03-26T07:25:19.916Z,8.80
2023-03-26T07:28:21.693Z,8.70
2023-03-26T07:31:24.540Z,8.50
2023-03-26T07:34:08.643Z,8.30
2023-03-26T07:36:56.520Z,8.20
2023-03-26T07:39:43.421Z,8.10
2023-03-26T07:42:30.525Z,8.00
2023-03-26T07:45:21.964Z,8.00
2023-03-26T07:48:04.604Z,8.10
2023-03-26T07:50:53.407Z,8.10
2023-03-26T07:53:48.922Z,8.10
2023-03-26T07:56:39.115Z,8.00
2023-03-26T07:59:24.023Z,8.00
2023-03-26T08:02:33.458Z,8.10
2023-03-26T08:05:26.097Z,8.20
2023-03-26T08:08:23.078Z,8.30
2023-03-26T08:11:35.684Z,8.30
2023-03-26T08:14:16.584Z,8.40
2023-03-26T08:16:52.049Z,8.50
2023-03-26T08:19:28.935Z,8.60
2023-03-26T08:22:01.361Z,8.80
2023-03-26T08:24:36.708Z,8.90
2023-03-26T08:27:08.688Z,9.00
2023-03-26T08:29:42.525Z,9.00
2023-03-26T08:32:14.955Z,9.10
2023-03-26T08:34:43.565Z,9.00
2023-03-26T08:37:13.798Z,9.00
2023-03-26T08:39:42.528Z,9.10
2023-03-26T08:42:34.532Z,9.10
2023-03-26T08:45:19.358Z,9.10
2023-03-26T08:48:05.426Z,9.10
2023-03-26T08:50:52.092Z,8.90
2023-03-26T08:53:39.685Z,8.80
2023-03-26T08:56:14.346Z,8.60
2023-03-26T08:59:02.073Z,8.50
2023-03-26T09:01:45.717Z,8.60
2023-03-26T09:04:36.172Z,8.60
2023-03-26T09:07:21.549Z,8.60
2023-03-26T09:10:09.097Z,8.60
2023-03-26T09:12:56.034Z,8.80
2023-03-26T09:15:44.510Z,8.70
2023-03-26T09:18:34.422Z,8.70
2023-03-26T09:21:13.253Z,8.60
2023-03-26T09:23:53.415Z,8.40
2023-03-26T09:26:30.737Z,8.30
2023-03-26T09:29:16.967Z,8.10
2023-03-26T09:32:03.398Z,8.10
2023-03-26T09:34:33.314Z,8.10
2023-03-26T09:37:14.166Z,8.30
2023-03-26T09:39:48.270Z,8.30
2023-03-26T09:42:24.430Z,8.10
2023-03-26T09:45:10.832Z,8.00
2023-03-26T09:47:52.061Z,7.80
2023-03-26T09:50:27.385Z,7.70
2023-03-26T09:52:59.715Z,7.60
2023-03-26T09:55:46.674Z,7.70
2023-03-26T09:58:42.306Z,7.60
2023-03-26T10:01:14.526Z,7.70
2023-03-26T10:03:49.715Z,7.60
2023-03-26T10:06:36.515Z,7.60
2023-03-26T10:09:15.013Z,7.80
2023-03-26T10:11:50.278Z,7.90
2023-03-26T10:14:23.824Z,7.90
2023-03-26T10:16:55.883Z,8.00
2023-03-26T10:19:31.525Z,8.10
2023-03-26T10:22:04.297Z,8.10
2023-03-26T10:24:42.485Z,8.20
2023-03-26T10:27:19.689Z,8.10
2023-03-26T10:30:10.555Z,8.00
2023-03-26T10:32:46.830Z,8.00
2023-03-26T10:35:22.851Z,8.00
2023-03-26T10:38:02.135Z,8.10
2023-03-26T10:40:34.361Z,8.10
2023-03-26T10:43:17.308Z,8.00
2023-03-26T10:46:05.560Z,7.90
2023-03-26T10:48:51.426Z,8.00
2023-03-26T10:51:27.375Z,7.90
2023-03-26T10:53:56.952Z,7.80
2023-03-26T10:56:33.188Z,7.80
2023-03-26T10:59:03.552Z,7.80
2023-03-26T11:01:37.586Z,7.80
2023-03-26T11:04:13.553Z,7.80
2023-03-26T11:06:48.553Z,7.80
2023-03-26T11:09:23.075Z,7.70
2023-03-26T11:11:56.207Z,8.00
2023-03-26T11:14:34.352Z,7.70
2023-03-26T11:17:06.478Z,7.70
2023-03-26T11:19:40.335Z,7.20
2023-03-26T11:22:23.672Z,9.00
2023-03-26T11:25:19.084Z,7.90
2023-03-26T11:27:52.340Z,8.00
2023-03-26T11:30:24.581Z,8.10
2023-03-26T11:32:54.650Z,8.10
2023-03-26T11:35:40.434Z,8.10
2023-03-26T11:38:17.881Z,8.10
2023-03-26T11:40:50.663Z,8.20
2023-03-26T11:43:32.055Z,8.30
2023-03-26T11:46:00.890Z,8.50
2023-03-26T11:48:33.288Z,8.60
2023-03-26T11:51:04.186Z,8.80
2023-03-26T11:53:34.675Z,8.90
2023-03-26T11:56:04.681Z,9.00
2023-03-26T11:58:35.102Z,9.00
2023-03-26T12:01:14.436Z,9.10
2023-03-26T12:03:42.844Z,9.10
2023-03-26T12:06:23.810Z,9.10
2023-03-26T12:08:54.117Z,9.10
2023-03-26T12:11:26.727Z,9.30
2023-03-26T12:13:58.766Z,9.60
2023-03-26T12:16:27.696Z,9.70
2023-03-26T12:19:00.607Z,9.90
2023-03-26T12:21:28.648Z,10.00
2023-03-26T12:24:00.211Z,10.20
2023-03-26T12:26:46.708Z,10.10
2023-03-26T12:29:15.684Z,9.90
2023-03-26T12:31:48.133Z,9.70
2023-03-26T12:34:17.361Z,9.70
2023-03-26T12:36:55.918Z,9.70
2023-03-26T12:40:08.863Z,9.60
2023-03-26T12:44:51.663Z,9.50
2023-03-26T12:45:16.512Z,9.30
2023-03-26T12:47:57.413Z,9.40
2023-03-26T12:50:40.424Z,9.40
2023-03-26T12:53:23.382Z,9.50
2023-03-26T12:55:59.591Z,9.60
2023-03-26T12:58:51.499Z,9.60
2023-03-26T13:01:27.793Z,9.60
2023-03-26T13:04:14.498Z,9.60
2023-03-26T13:06:59.072Z,9.60
2023-03-26T13:09:41.058Z,9.70
2023-03-26T13:12:14.380Z,9.80
2023-03-26T13:14:49.638Z,9.80
2023-03-26T13:17:22.718Z,9.90
2023-03-26T13:19:56.356Z,9.90
2023-03-26T13:22:28.820Z,9.80
2023-03-26T13:25:02.098Z,9.60
2023-03-26T13:27:36.987Z,9.90
2023-03-26T13:30:12.199Z,9.90
2023-03-26T13:32:50.446Z,10.00
2023-03-26T13:35:27.697Z,9.90
2023-03-26T13:37:57.090Z,9.90
2023-03-26T13:40:27.694Z,10.00
2023-03-26T13:43:14.454Z,10.00
2023-03-26T13:45:51.253Z,9.90
2023-03-26T13:48:22.354Z,9.90
2023-03-26T13:50:54.689Z,9.70
2023-03-26T13:53:25.935Z,9.70
2023-03-26T13:55:56.007Z,9.70
2023-03-26T13:58:34.442Z,9.70
2023-03-26T14:01:08.207Z,9.60
2023-03-26T14:03:43.097Z,9.70
2023-03-26T14:06:14.520Z,9.60
2023-03-26T14:08:43.555Z,9.40
2023-03-26T14:11:13.822Z,9.30
2023-03-26T14:13:46.992Z,9.10
2023-03-26T14:16:17.725Z,9.00
2023-03-26T14:18:50.229Z,8.90
2023-03-26T14:21:34.166Z,8.90
2023-03-26T14:24:08.202Z,8.90
2023-03-26T14:26:43.534Z,8.80
2023-03-26T14:29:24.847Z,8.80
2023-03-26T14:31:58.790Z,8.70
2023-03-26T14:34:34.430Z,8.70
2023-03-26T14:37:27.372Z,8.60
2023-03-26T14:40:18.178Z,8.70
2023-03-26T14:42:55.972Z,8.60
2023-03-26T14:45:35.942Z,8.70
2023-03-26T14:48:16.393Z,8.70
2023-03-26T14:50:54.454Z,8.70
2023-03-26T14:53:26.999Z,8.80
2023-03-26T14:56:04.966Z,8.70
2023-03-26T14:58:57.402Z,8.60
2023-03-26T15:01:28.894Z,8.60
2023-03-26T15:04:16.251Z,8.40
2023-03-26T15:07:01.935Z,8.30
2023-03-26T15:09:49.360Z,8.20
2023-03-26T15:12:23.012Z,8.00
2023-03-26T15:15:05.099Z,7.90
2023-03-26T15:17:51.182Z,7.80
2023-03-26T15:20:34.724Z,7.90
2023-03-26T15:23:20.786Z,7.80
2023-03-26T15:25:59.140Z,7.80
2023-03-26T15:28:42.616Z,7.90
2023-03-26T15:31:37.855Z,7.90
2023-03-26T15:34:20.045Z,7.90
2023-03-26T15:37:11.184Z,8.00
2023-03-26T15:39:59.949Z,8.10
2023-03-26T15:42:32.285Z,8.20
2023-03-26T15:45:14.001Z,8.30
2023-03-26T15:47:49.756Z,8.40
2023-03-26T15:50:23.379Z,8.50
2023-03-26T15:52:54.296Z,8.60
2023-03-26T15:55:27.867Z,8.60
2023-03-26T15:57:58.110Z,8.70
2023-03-26T16:00:29.061Z,8.90
2023-03-26T16:03:15.825Z,9.00
2023-03-26T16:06:02.646Z,9.00
2023-03-26T16:08:38.677Z,9.00
2023-03-26T16:11:12.709Z,9.10
2023-03-26T16:13:41.458Z,9.20
2023-03-26T16:16:18.895Z,9.20
2023-03-26T16:18:48.345Z,9.10
2023-03-26T16:21:36.713Z,9.10
2023-03-26T16:24:23.592Z,9.00
2023-03-26T16:27:10.748Z,9.00
2023-03-26T16:29:53.726Z,9.00
2023-03-26T16:32:28.993Z,9.00
2023-03-26T16:34:58.291Z,9.00
2023-03-26T16:37:37.349Z,8.90
2023-03-26T16:40:23.978Z,9.00
2023-03-26T16:42:56.176Z,9.00
2023-03-26T16:45:28.530Z,9.00
2023-03-26T16:48:02.119Z,9.00
2023-03-26T16:50:36.767Z,9.00
2023-03-26T16:53:15.769Z,8.90
2023-03-26T16:55:44.770Z,8.90
2023-03-26T16:58:16.818Z,8.80
2023-03-26T17:00:49.137Z,8.90
2023-03-26T17:03:34.126Z,8.90
2023-03-26T17:06:07.124Z,9.00
2023-03-26T17:08:43.349Z,9.00
2023-03-26T17:11:20.234Z,8.90
2023-03-26T17:13:51.779Z,8.90
2023-03-26T17:16:23.083Z,8.90
2023-03-26T17:18:56.903Z,9.00
2023-03-26T17:21:28.944Z,9.00
2023-03-26T17:24:19.115Z,8.90
2023-03-26T17:27:05.478Z,8.90
2023-03-26T17:29:45.049Z,8.90
2023-03-26T17:32:15.074Z,9.00
2023-03-26T17:35:00.792Z,8.90
2023-03-26T17:37:33.173Z,8.90
2023-03-26T17:40:20.795Z,8.90
2023-03-26T17:43:02.124Z,8.90
2023-03-26T17:45:33.485Z,8.90
2023-03-26T17:48:06.291Z,8.90
2023-03-26T17:50:45.621Z,8.80
2023-03-26T17:53:20.117Z,8.70
2023-03-26T17:55:51.261Z,8.70
2023-03-26T17:58:24.790Z,8.70
2023-03-26T18:00:57.229Z,8.60
2023-03-26T18:03:31.023Z,8.50
2023-03-26T18:06:03.970Z,8.30
2023-03-26T18:08:42.557Z,8.30
2023-03-26T18:11:17.987Z,8.20
2023-03-26T18:14:04.847Z,8.20
2023-03-26T18:16:38.532Z,8.00
2023-03-26T18:19:17.591Z,7.90
2023-03-26T18:21:50.165Z,7.90
2023-03-26T18:24:20.163Z,7.80
2023-03-26T18:26:51.918Z,7.70
2023-03-26T18:29:24.552Z,7.60
2023-03-26T18:31:57.873Z,7.40
2023-03-26T18:34:26.830Z,7.40
2023-03-26T18:37:14.922Z,7.50
2023-03-26T18:39:43.607Z,7.40
2023-03-26T18:42:24.421Z,7.30
2023-03-26T18:44:53.932Z,7.20
2023-03-26T18:47:29.316Z,7.10
2023-03-26T18:49:58.013Z,7.10
2023-03-26T18:52:29.147Z,7.10
2023-03-26T18:54:59.030Z,7.00
2023-03-26T18:57:28.226Z,7.00
2023-03-26T19:00:01.670Z,7.00
2023-03-26T19:02:32.863Z,7.00
2023-03-26T19:05:02.912Z,6.90
2023-03-26T19:07:36.220Z,6.90
2023-03-26T19:10:04.877Z,6.90
2023-03-26T19:12:35.948Z,6.90
2023-03-26T19:15:06.045Z,6.90
2023-03-26T19:17:38.083Z,6.90
2023-03-26T19:20:09.854Z,6.90
2023-03-26T19:22:42.409Z,6.90
2023-03-26T19:25:16.723Z,6.90
2023-03-26T19:27:45.895Z,7.20
2023-03-26T19:30:19.933Z,7.00
2023-03-26T19:32:53.758Z,7.00
2023-03-26T19:35:22.786Z,7.00
2023-03-26T19:37:54.396Z,7.00
2023-03-26T19:40:29.737Z,7.00
2023-03-26T19:42:58.924Z,6.90
2023-03-26T19:45:27.466Z,6.90
2023-03-26T19:48:07.750Z,6.90
2023-03-26T19:50:44.218Z,7.00
2023-03-26T19:53:22.418Z,7.00
2023-03-26T19:55:54.356Z,7.00
2023-03-26T19:58:22.720Z,6.70
2023-03-26T20:00:50.878Z,7.00
2023-03-26T20:03:23.670Z,6.90
2023-03-26T20:05:52.085Z,6.90
2023-03-26T20:08:27.220Z,7.00
2023-03-26T20:10:56.176Z,7.00
2023-03-26T20:13:24.742Z,7.00
2023-03-26T20:16:05.534Z,7.00
2023-03-26T20:18:35.139Z,7.10
2023-03-26T20:21:03.765Z,7.00
2023-03-26T20:23:33.458Z,7.00
2023-03-26T20:26:01.508Z,7.00
2023-03-26T20:30:58.591Z,6.90
2023-03-26T20:33:27.737Z,6.90
2023-03-26T20:35:56.732Z,6.80
2023-03-26T20:38:39.247Z,6.80
2023-03-26T20:41:11.091Z,6.90
2023-03-26T20:43:39.156Z,6.90
2023-03-26T20:46:08.006Z,6.90
2023-03-26T20:48:36.011Z,6.90
2023-03-26T20:51:05.073Z,6.90
2023-03-26T20:53:33.199Z,7.00
2023-03-26T20:56:02.150Z,7.00
2023-03-26T20:58:32.315Z,7.00
2023-03-26T21:01:01.189Z,7.00
2023-03-26T21:03:29.420Z,7.00
2023-03-26T21:06:00.480Z,7.00
2023-03-26T21:08:35.374Z,6.90
2023-03-26T21:11:04.772Z,7.00
2023-03-26T21:13:37.883Z,6.90
2023-03-26T21:16:08.006Z,6.80
2023-03-26T21:18:37.340Z,6.90
2023-03-26T21:21:20.051Z,6.90
2023-03-26T21:23:59.354Z,6.90
2023-03-26T21:26:31.280Z,6.90
2023-03-26T21:29:01.113Z,6.80
2023-03-26T21:31:30.904Z,6.80
2023-03-26T21:33:59.592Z,6.80
2023-03-26T21:36:28.115Z,6.80
2023-03-26T21:38:56.762Z,6.80
2023-03-26T21:41:35.671Z,6.80
2023-03-26T21:44:05.586Z,6.80
2023-03-26T21:46:34.122Z,6.70
2023-03-26T21:49:02.776Z,6.70
2023-03-26T21:51:32.061Z,6.70
2023-03-26T21:54:00.858Z,6.70
2023-03-26T21:56:36.134Z,6.70
2023-03-26T21:59:09.098Z,6.60
2023-03-26T22:01:44.629Z,6.60
2023-03-26T22:04:15.326Z,6.60
2023-03-26T22:06:46.946Z,6.60
2023-03-26T22:09:18.483Z,6.60
2023-03-26T22:11:49.028Z,6.60
2023-03-26T22:14:18.946Z,6.50
2023-03-26T22:16:47.290Z,7.50
2023-03-26T22:19:15.719Z,6.60
2023-03-26T22:21:44.002Z,6.50
2023-03-26T22:24:12.049Z,6.50
2023-03-26T22:26:40.985Z,6.50
2023-03-26T22:29:09.604Z,6.40
2023-03-26T22:31:40.361Z,6.50
2023-03-26T22:34:08.741Z,6.50
2023-03-26T22:36:38.424Z,6.50
2023-03-26T22:39:08.562Z,6.50
2023-03-26T22:41:37.333Z,6.50
2023-03-26T22:44:16.879Z,6.50
2023-03-26T22:46:51.291Z,6.50
2023-03-26T22:49:19.730Z,6.40
2023-03-26T22:51:48.296Z,6.40
2023-03-26T22:54:16.324Z,6.40
2023-03-26T22:56:45.919Z,6.40
2023-03-26T22:59:14.169Z,6.90
2023-03-26T23:01:44.461Z,6.40
2023-03-26T23:04:31.511Z,6.30
2023-03-26T23:07:00.954Z,6.40
2023-03-26T23:09:29.410Z,6.40
2023-03-26T23:11:58.076Z,6.50
2023-03-26T23:14:26.192Z,6.40
2023-03-26T23:16:55.092Z,6.40
2023-03-26T23:19:24.553Z,6.40
2023-03-26T23:21:53.048Z,6.40
2023-03-26T23:24:21.073Z,6.40
2023-03-26T23:26:51.265Z,6.40
2023-03-26T23:29:19.771Z,6.40
2023-03-26T23:31:48.429Z,6.40
2023-03-26T23:34:16.962Z,6.40
2023-03-26T23:36:47.226Z,6.40
2023-03-26T23:39:15.888Z,6.40
2023-03-26T23:41:44.184Z,6.40
2023-03-26T23:44:14.543Z,6.30
2023-03-26T23:46:44.274Z,6.30
2023-03-26T23:49:12.826Z,6.30
2023-03-26T23:51:42.056Z,6.30
2023-03-26T23:54:11.928Z,6.30
2023-03-26T23:56:40.086Z,6.30
2023-03-26T23:59:08.594Z,6.40
